Time;durP1;ratioP1;P1;durP2;ratioP2;P2;SDS_P1;SDS_P2;PMS_P1;PMS_P2;Temp;Humidity;BMP_temperature;BMP_pressure;BME280_temperature;BME280_humidity;BME280_pressure;Samples;Min_cycle;Max_cycle;Signal;HPM_P1;HPM_P2
2022/07/24 00:01:34;;;;;;;24.77;16.73;;;19.80;99.90;;;;;;5069398;28;20085;-74
2022/07/24 00:04:00;;;;;;;27.95;19.17;;;19.80;99.90;;;;;;5070340;28;20039;-75
2022/07/24 00:06:25;;;;;;;26.27;17.80;;;19.80;99.90;;;;;;5070610;28;20024;-74
2022/07/24 00:08:51;;;;;;;27.60;17.58;;;19.80;99.90;;;;;;5068584;28;20020;-73
2022/07/24 00:11:17;;;;;;;25.05;17.05;;;19.80;99.90;;;;;;5071309;28;20021;-74
2022/07/24 00:13:42;;;;;;;26.13;16.92;;;19.80;99.90;;;;;;5070417;28;20070;-73
2022/07/24 00:16:08;;;;;;;25.05;16.13;;;19.70;99.90;;;;;;5071016;28;20036;-74
2022/07/24 00:18:34;;;;;;;27.35;17.23;;;19.70;99.90;;;;;;5052188;28;20033;-73
2022/07/24 00:21:00;;;;;;;26.02;17.35;;;19.70;99.90;;;;;;5070100;28;20053;-73
2022/07/24 00:23:26;;;;;;;26.10;18.17;;;19.70;99.90;;;;;;5070469;28;20158;-75
2022/07/24 00:25:53;;;;;;;29.38;18.50;;;19.80;99.90;;;;;;5071026;28;20370;-74
2022/07/24 00:28:19;;;;;;;27.90;18.55;;;19.70;99.90;;;;;;5070623;28;20031;-74
2022/07/24 00:30:45;;;;;;;33.35;19.98;;;19.70;99.90;;;;;;5070190;28;20090;-74
2022/07/24 00:33:11;;;;;;;27.88;19.42;;;19.60;99.90;;;;;;5059003;28;20025;-74
2022/07/24 00:35:36;;;;;;;28.65;18.88;;;19.60;99.90;;;;;;5071300;28;20498;-74
2022/07/24 00:38:03;;;;;;;24.58;19.15;;;19.60;99.90;;;;;;5069624;28;20089;-75
2022/07/24 00:40:29;;;;;;;30.50;18.85;;;19.60;99.90;;;;;;5060289;28;20082;-74
2022/07/24 00:42:56;;;;;;;24.13;17.58;;;19.60;99.90;;;;;;5071738;28;20657;-74
2022/07/24 00:45:22;;;;;;;28.67;18.15;;;19.60;99.90;;;;;;5073510;28;20064;-74
2022/07/24 00:47:48;;;;;;;23.67;17.17;;;19.50;99.90;;;;;;5074487;28;20064;-74
2022/07/24 00:50:14;;;;;;;29.05;17.63;;;19.50;99.90;;;;;;5074722;28;20024;-75
2022/07/24 00:52:40;;;;;;;26.73;18.17;;;19.50;99.90;;;;;;5064889;28;20017;-74
2022/07/24 00:55:06;;;;;;;28.35;17.50;;;19.50;99.90;;;;;;5074095;28;20040;-74
2022/07/24 00:57:32;;;;;;;25.48;17.25;;;19.50;99.90;;;;;;5074150;28;20033;-74
2022/07/24 00:59:58;;;;;;;31.00;17.63;;;19.50;99.90;;;;;;5074979;28;20035;-74
2022/07/24 01:02:23;;;;;;;30.33;17.40;;;19.40;99.90;;;;;;5069054;28;20036;-74
2022/07/24 01:04:50;;;;;;;30.52;17.73;;;19.40;99.90;;;;;;5074291;28;20025;-73
2022/07/24 01:07:16;;;;;;;28.70;17.30;;;19.40;99.90;;;;;;5069151;28;20043;-74
2022/07/24 01:09:43;;;;;;;30.02;16.92;;;19.40;99.90;;;;;;5067424;28;20021;-74
2022/07/24 01:12:08;;;;;;;25.00;16.17;;;19.40;99.90;;;;;;5074086;28;20377;-74
2022/07/24 01:14:34;;;;;;;28.73;16.48;;;19.40;99.90;;;;;;5070946;28;20025;-73
2022/07/24 01:17:00;;;;;;;25.63;16.77;;;19.40;99.90;;;;;;5073767;28;20013;-73
2022/07/24 01:19:26;;;;;;;25.77;16.13;;;19.30;99.90;;;;;;5073908;28;20576;-74
2022/07/24 01:21:53;;;;;;;23.58;15.32;;;19.30;99.90;;;;;;5053970;28;20367;-74
2022/07/24 01:24:20;;;;;;;26.27;15.98;;;19.30;99.90;;;;;;5074464;28;20024;-74
2022/07/24 01:26:46;;;;;;;26.55;15.25;;;19.30;99.90;;;;;;5070669;28;20056;-74
2022/07/24 01:29:12;;;;;;;26.83;15.18;;;19.30;99.90;;;;;;5073281;28;20120;-74
2022/07/24 01:31:38;;;;;;;26.23;14.88;;;19.30;99.90;;;;;;5073591;28;20497;-75
2022/07/24 01:34:04;;;;;;;25.10;14.65;;;19.20;99.90;;;;;;5074034;28;20021;-76
2022/07/24 01:36:30;;;;;;;23.10;14.20;;;19.20;99.90;;;;;;5073103;28;20077;-75
2022/07/24 01:38:55;;;;;;;21.85;14.35;;;19.20;99.90;;;;;;5073709;28;20441;-75
2022/07/24 01:41:21;;;;;;;23.55;13.32;;;19.20;99.90;;;;;;5073767;28;20071;-74
2022/07/24 01:43:47;;;;;;;27.77;13.07;;;19.10;99.90;;;;;;5073481;28;20032;-74
2022/07/24 01:46:12;;;;;;;23.60;12.77;;;19.10;99.90;;;;;;5073474;28;20028;-75
2022/07/24 01:48:42;;;;;;;23.02;13.20;;;19.10;99.90;;;;;;5073035;28;20036;-74
2022/07/24 01:51:08;;;;;;;20.38;12.13;;;19.10;99.90;;;;;;5073071;28;20035;-74
2022/07/24 01:53:34;;;;;;;17.88;11.40;;;19.10;99.90;;;;;;5072230;28;20035;-74
2022/07/24 01:56:00;;;;;;;19.33;11.15;;;19.10;99.90;;;;;;5073108;28;20029;-75
2022/07/24 01:58:25;;;;;;;19.02;10.40;;;19.10;99.90;;;;;;5072876;28;20460;-74
2022/07/24 02:00:51;;;;;;;17.45;11.02;;;19.10;99.90;;;;;;5073200;28;20037;-74
2022/07/24 02:03:17;;;;;;;21.95;10.85;;;19.10;99.90;;;;;;5073092;28;20112;-73
2022/07/24 02:05:43;;;;;;;16.08;10.30;;;19.10;99.90;;;;;;5072746;28;20041;-74
2022/07/24 02:08:09;;;;;;;17.67;10.60;;;19.00;99.90;;;;;;5072722;28;20025;-74
2022/07/24 02:10:34;;;;;;;18.75;10.82;;;19.00;99.90;;;;;;5067826;28;20432;-74
2022/07/24 02:13:00;;;;;;;21.15;11.00;;;19.00;99.90;;;;;;5072780;28;20468;-77
2022/07/24 02:15:26;;;;;;;23.63;10.98;;;19.00;99.90;;;;;;5072674;28;20384;-74
2022/07/24 02:17:56;;;;;;;18.90;10.32;;;19.00;99.90;;;;;;5072081;28;20042;-76
2022/07/24 02:20:23;;;;;;;19.50;10.70;;;19.00;99.90;;;;;;5067886;28;20060;-75
2022/07/24 02:22:49;;;;;;;20.38;10.75;;;19.00;99.90;;;;;;5072805;28;20063;-74
2022/07/24 02:25:15;;;;;;;21.50;10.75;;;19.00;99.90;;;;;;5072831;28;20078;-74
2022/07/24 02:27:41;;;;;;;18.15;10.30;;;19.00;99.90;;;;;;5073157;28;20024;-74
2022/07/24 02:30:10;;;;;;;19.88;10.20;;;19.00;99.90;;;;;;5072294;28;20480;-75
2022/07/24 02:32:35;;;;;;;15.75;10.60;;;19.00;99.90;;;;;;5072666;28;20082;-75
2022/07/24 02:35:01;;;;;;;20.13;10.55;;;19.00;99.90;;;;;;5072272;28;20028;-74
2022/07/24 02:37:26;;;;;;;21.05;10.32;;;18.90;99.90;;;;;;5073070;28;20044;-74
2022/07/24 02:39:52;;;;;;;19.50;11.10;;;18.90;99.90;;;;;;5072776;28;20024;-74
2022/07/24 02:42:17;;;;;;;17.10;10.50;;;18.90;99.90;;;;;;5066659;28;20433;-74
2022/07/24 02:44:43;;;;;;;17.30;10.18;;;18.90;99.90;;;;;;5070202;28;20027;-74
2022/07/24 02:47:09;;;;;;;19.92;10.50;;;18.90;99.90;;;;;;5072180;28;20020;-74
2022/07/24 02:49:35;;;;;;;17.90;10.52;;;18.90;99.90;;;;;;5071401;28;20039;-74
2022/07/24 02:52:01;;;;;;;19.40;11.32;;;18.80;99.90;;;;;;5054028;28;20421;-75
2022/07/24 02:54:27;;;;;;;21.23;11.52;;;18.80;99.90;;;;;;5065115;28;20036;-75
2022/07/24 02:56:53;;;;;;;18.90;10.93;;;18.80;99.90;;;;;;5066260;28;20373;-74
2022/07/24 02:59:18;;;;;;;24.25;10.95;;;18.80;99.90;;;;;;5072609;28;20099;-75
2022/07/24 03:01:44;;;;;;;26.23;11.98;;;18.70;99.90;;;;;;5067996;28;20569;-74
2022/07/24 03:04:10;;;;;;;21.00;11.07;;;18.70;99.90;;;;;;5071353;28;20423;-73
2022/07/24 03:06:35;;;;;;;15.70;10.88;;;18.70;99.90;;;;;;5072300;28;20021;-74
2022/07/24 03:09:02;;;;;;;20.98;11.00;;;18.70;99.90;;;;;;5057804;28;20024;-74
2022/07/24 03:11:27;;;;;;;20.13;10.27;;;18.70;99.90;;;;;;5068842;28;20115;-75
2022/07/24 03:13:53;;;;;;;16.63;9.68;;;18.70;99.90;;;;;;5062019;28;20104;-74
2022/07/24 03:16:19;;;;;;;17.45;9.95;;;18.70;99.90;;;;;;5070477;28;20036;-74
2022/07/24 03:18:50;;;;;;;17.13;9.77;;;18.60;99.90;;;;;;5071535;28;20020;-73
2022/07/24 03:21:17;;;;;;;16.73;9.40;;;18.60;99.90;;;;;;5071668;28;20044;-73
2022/07/24 03:23:43;;;;;;;16.10;9.73;;;18.60;99.90;;;;;;5071689;28;20387;-74
2022/07/24 03:26:09;;;;;;;14.90;9.65;;;18.60;99.90;;;;;;5071070;28;20078;-75
2022/07/24 03:28:35;;;;;;;15.80;9.32;;;18.50;99.90;;;;;;5072034;28;20479;-73
2022/07/24 03:31:00;;;;;;;15.95;9.05;;;18.60;99.90;;;;;;5072000;28;20036;-74
2022/07/24 03:33:29;;;;;;;16.73;8.93;;;18.50;99.90;;;;;;5071263;28;20081;-74
2022/07/24 03:35:56;;;;;;;12.77;8.18;;;18.50;99.90;;;;;;5071444;28;20528;-74
2022/07/24 03:38:22;;;;;;;12.52;8.20;;;18.50;99.90;;;;;;5072154;28;20033;-75
2022/07/24 03:40:47;;;;;;;16.00;8.30;;;18.50;99.90;;;;;;5053480;28;20033;-74
2022/07/24 03:43:13;;;;;;;12.98;7.93;;;18.40;99.90;;;;;;5070362;28;20157;-74
2022/07/24 03:45:39;;;;;;;12.48;7.80;;;18.40;99.90;;;;;;5069403;28;20420;-75
2022/07/24 03:48:04;;;;;;;11.75;7.13;;;18.40;99.90;;;;;;5045669;28;20021;-74
2022/07/24 03:50:30;;;;;;;15.65;7.50;;;18.40;99.90;;;;;;5070514;28;20037;-74
2022/07/24 03:52:56;;;;;;;10.48;7.20;;;18.30;99.90;;;;;;5066565;28;20017;-74
2022/07/24 03:55:22;;;;;;;13.85;7.40;;;18.30;99.90;;;;;;5071366;28;20055;-75
2022/07/24 03:57:48;;;;;;;12.63;7.22;;;18.30;99.90;;;;;;5053451;28;20075;-74
2022/07/24 04:00:14;;;;;;;15.63;6.80;;;18.30;99.90;;;;;;5071641;28;20028;-75
2022/07/24 04:02:40;;;;;;;10.55;6.38;;;18.30;99.90;;;;;;5070915;28;20099;-73
2022/07/24 04:05:08;;;;;;;11.95;6.45;;;18.30;99.90;;;;;;5070394;28;20107;-74
2022/07/24 04:07:37;;;;;;;9.93;6.40;;;18.30;99.90;;;;;;5062047;28;20534;-74
2022/07/24 04:10:04;;;;;;;13.77;6.65;;;18.20;99.90;;;;;;5070760;28;20048;-75
2022/07/24 04:12:30;;;;;;;12.07;6.22;;;18.20;99.90;;;;;;5056849;28;20024;-75
2022/07/24 04:14:56;;;;;;;9.45;6.22;;;18.20;99.90;;;;;;5071032;28;20377;-74
2022/07/24 04:17:21;;;;;;;11.30;6.10;;;18.30;99.90;;;;;;5064265;28;20477;-74
2022/07/24 04:19:47;;;;;;;12.30;6.38;;;18.20;99.90;;;;;;5067200;28;20056;-75
2022/07/24 04:22:13;;;;;;;11.05;6.00;;;18.20;99.90;;;;;;5070524;28;20108;-74
2022/07/24 04:24:38;;;;;;;11.88;5.88;;;18.20;99.90;;;;;;5064187;28;20399;-74
2022/07/24 04:27:04;;;;;;;12.18;5.47;;;18.20;99.90;;;;;;5070972;28;20028;-75
2022/07/24 04:29:29;;;;;;;12.75;5.50;;;18.20;99.90;;;;;;5069532;28;20524;-74
2022/07/24 04:31:55;;;;;;;13.85;5.72;;;18.20;99.90;;;;;;5041029;28;20474;-74
2022/07/24 04:34:21;;;;;;;9.10;5.20;;;18.20;99.90;;;;;;5070978;28;20039;-74
2022/07/24 04:36:46;;;;;;;10.15;5.10;;;18.20;99.90;;;;;;5060539;28;20101;-74
2022/07/24 04:39:12;;;;;;;10.25;5.55;;;18.20;99.90;;;;;;5070758;28;20037;-74
2022/07/24 04:41:38;;;;;;;12.70;5.53;;;18.20;99.90;;;;;;5070542;28;20530;-75
2022/07/24 04:44:04;;;;;;;8.63;5.20;;;18.20;99.90;;;;;;5070728;28;20071;-75
2022/07/24 04:46:30;;;;;;;10.55;5.22;;;18.20;99.90;;;;;;5069276;28;20535;-74
2022/07/24 04:48:55;;;;;;;9.50;5.45;;;18.20;99.90;;;;;;5071115;28;20108;-74
2022/07/24 04:51:21;;;;;;;9.48;5.30;;;18.20;99.90;;;;;;5070553;28;20025;-74
2022/07/24 04:53:46;;;;;;;9.23;5.32;;;18.20;99.90;;;;;;5070683;28;20044;-75
2022/07/24 04:56:12;;;;;;;9.70;5.43;;;18.20;99.90;;;;;;5069924;28;20054;-75
2022/07/24 04:58:38;;;;;;;12.93;5.57;;;18.30;99.90;;;;;;5068536;28;20070;-74
2022/07/24 05:01:03;;;;;;;10.00;5.28;;;18.30;99.90;;;;;;5067957;28;20484;-74
2022/07/24 05:03:29;;;;;;;11.10;5.18;;;18.30;99.90;;;;;;5065093;28;20035;-74
2022/07/24 05:05:55;;;;;;;8.15;5.38;;;18.30;99.90;;;;;;5070606;28;20460;-74
2022/07/24 05:08:20;;;;;;;13.10;5.10;;;18.30;99.90;;;;;;5070180;28;20449;-74
2022/07/24 05:10:46;;;;;;;8.38;5.25;;;18.30;99.90;;;;;;5070115;28;20081;-73
2022/07/24 05:13:11;;;;;;;9.63;5.30;;;18.30;99.90;;;;;;5070265;28;20194;-74
2022/07/24 05:15:37;;;;;;;11.27;5.38;;;18.40;99.90;;;;;;5069530;28;20035;-74
2022/07/24 05:18:03;;;;;;;10.13;5.30;;;18.40;99.90;;;;;;5070701;28;20103;-75
2022/07/24 05:20:28;;;;;;;12.32;5.38;;;18.40;99.90;;;;;;5069813;28;20447;-73
2022/07/24 05:22:54;;;;;;;10.25;5.57;;;18.40;99.90;;;;;;5064364;28;20017;-74
2022/07/24 05:25:19;;;;;;;11.35;5.50;;;18.40;99.90;;;;;;5061941;28;20036;-74
2022/07/24 05:27:45;;;;;;;11.57;5.65;;;18.50;99.90;;;;;;5071281;28;20058;-74
2022/07/24 05:30:11;;;;;;;13.43;6.22;;;18.50;99.90;;;;;;5073855;28;20042;-75
2022/07/24 05:32:37;;;;;;;12.52;5.43;;;18.50;99.90;;;;;;5073413;28;20081;-75
2022/07/24 05:35:03;;;;;;;14.18;5.65;;;18.50;99.90;;;;;;5073284;28;20025;-74
2022/07/24 05:37:28;;;;;;;11.00;4.85;;;18.60;99.90;;;;;;5065603;28;20060;-73
2022/07/24 05:39:54;;;;;;;64.30;50.22;;;18.70;99.90;;;;;;5068562;28;20083;-74
2022/07/24 05:42:20;;;;;;;72.38;42.20;;;18.80;99.90;;;;;;5073656;28;20044;-73
2022/07/24 05:44:45;;;;;;;71.13;44.20;;;18.90;99.90;;;;;;5071950;28;20467;-74
2022/07/24 05:47:11;;;;;;;10.40;5.22;;;19.00;99.90;;;;;;5066160;28;20388;-74
2022/07/24 05:49:37;;;;;;;14.30;5.40;;;19.10;99.90;;;;;;5072124;28;20023;-74
2022/07/24 05:52:02;;;;;;;10.13;4.72;;;19.30;99.90;;;;;;5071197;28;20032;-75
2022/07/24 05:54:28;;;;;;;12.25;4.70;;;19.30;99.90;;;;;;5067582;28;20040;-75
2022/07/24 05:56:54;;;;;;;11.20;4.85;;;19.40;99.90;;;;;;5073142;28;20046;-75
2022/07/24 05:59:19;;;;;;;14.50;4.70;;;19.50;99.90;;;;;;5073411;28;20388;-74
2022/07/24 06:01:45;;;;;;;12.05;4.95;;;19.70;99.90;;;;;;5073225;28;20063;-75
2022/07/24 06:04:10;;;;;;;6.95;4.45;;;19.70;99.90;;;;;;5072883;28;20477;-73
2022/07/24 06:06:36;;;;;;;8.98;4.65;;;19.80;99.90;;;;;;5073489;28;20024;-74
2022/07/24 06:09:03;;;;;;;9.10;4.72;;;19.90;99.90;;;;;;5073079;28;20372;-75
2022/07/24 06:11:32;;;;;;;8.52;4.78;;;20.00;99.90;;;;;;5073498;28;20038;-74
2022/07/24 06:13:57;;;;;;;7.35;4.53;;;20.00;99.90;;;;;;5054961;28;20029;-74
2022/07/24 06:16:23;;;;;;;7.68;4.45;;;20.10;99.90;;;;;;5072627;28;20036;-75
2022/07/24 06:18:48;;;;;;;9.27;4.22;;;20.10;99.90;;;;;;5065073;28;20024;-74
2022/07/24 06:21:14;;;;;;;7.88;4.50;;;20.20;99.90;;;;;;5072652;28;20083;-74
2022/07/24 06:23:39;;;;;;;13.02;4.50;;;20.20;99.90;;;;;;5072770;28;20027;-74
2022/07/24 06:26:05;;;;;;;6.95;4.40;;;20.20;99.90;;;;;;5072902;28;20028;-74
2022/07/24 06:28:31;;;;;;;9.05;4.68;;;20.10;99.90;;;;;;5072030;28;20020;-74
2022/07/24 06:30:57;;;;;;;8.07;4.50;;;20.20;99.90;;;;;;5072716;28;20036;-77
2022/07/24 06:33:22;;;;;;;5.43;4.15;;;20.20;99.90;;;;;;5071621;28;20573;-73
2022/07/24 06:35:48;;;;;;;9.93;4.28;;;20.30;99.90;;;;;;5072149;28;20107;-75
2022/07/24 06:38:15;;;;;;;8.23;4.07;;;20.50;99.90;;;;;;5068839;28;20033;-75
2022/07/24 06:40:41;;;;;;;8.35;4.10;;;20.60;99.90;;;;;;5065302;28;20044;-74
2022/07/24 06:43:07;;;;;;;4.70;3.58;;;20.60;99.90;;;;;;5070179;28;20021;-75
2022/07/24 06:45:32;;;;;;;5.82;3.72;;;20.70;99.90;;;;;;5061432;28;20476;-74
2022/07/24 06:48:01;;;;;;;5.65;3.85;;;20.80;99.90;;;;;;5071832;28;20541;-74
2022/07/24 06:50:27;;;;;;;6.55;3.83;;;20.80;99.90;;;;;;5071572;28;20365;-74
2022/07/24 06:52:52;;;;;;;5.80;3.42;;;20.80;99.90;;;;;;5063649;28;20375;-74
2022/07/24 06:55:18;;;;;;;5.93;3.80;;;20.80;99.90;;;;;;5069221;28;20056;-76
2022/07/24 06:57:43;;;;;;;8.18;4.00;;;20.70;99.90;;;;;;5071252;28;20465;-75
2022/07/24 07:00:11;;;;;;;7.78;3.65;;;20.70;99.90;;;;;;5071787;28;20195;-74
2022/07/24 07:02:37;;;;;;;5.75;3.55;;;20.80;99.90;;;;;;5069457;28;20021;-74
2022/07/24 07:05:04;;;;;;;5.00;3.35;;;20.80;99.90;;;;;;5059277;28;20047;-74
2022/07/24 07:07:30;;;;;;;4.47;3.30;;;20.80;99.90;;;;;;5061826;28;20028;-75
2022/07/24 07:09:55;;;;;;;4.63;3.30;;;20.90;99.90;;;;;;5071533;28;20025;-75
2022/07/24 07:12:21;;;;;;;3.63;2.88;;;20.90;99.90;;;;;;5071462;28;20052;-75
2022/07/24 07:14:46;;;;;;;6.30;3.28;;;21.00;99.90;;;;;;5073081;28;20020;-74
2022/07/24 07:17:12;;;;;;;3.78;3.08;;;21.10;99.90;;;;;;5068560;28;20082;-75
2022/07/24 07:19:37;;;;;;;3.40;2.90;;;21.10;99.90;;;;;;5072099;28;20045;-75
2022/07/24 07:22:03;;;;;;;7.60;3.00;;;21.20;99.90;;;;;;5069972;28;20111;-76
2022/07/24 07:24:28;;;;;;;6.57;3.20;;;21.30;99.90;;;;;;5069847;28;20028;-74
2022/07/24 07:26:54;;;;;;;3.95;3.08;;;21.40;99.90;;;;;;5068836;28;20024;-74
2022/07/24 07:29:20;;;;;;;5.32;3.40;;;21.50;99.90;;;;;;5068229;28;20033;-74
2022/07/24 07:31:45;;;;;;;4.75;2.97;;;21.60;99.90;;;;;;5069158;28;20389;-75
2022/07/24 07:34:11;;;;;;;5.00;2.95;;;21.70;99.90;;;;;;5069498;28;20032;-75
2022/07/24 07:36:37;;;;;;;6.68;2.67;;;21.80;99.90;;;;;;5069092;28;20028;-74
2022/07/24 07:39:02;;;;;;;4.07;2.67;;;22.00;99.90;;;;;;5068915;28;20069;-73
2022/07/24 07:41:28;;;;;;;5.13;2.75;;;22.10;99.90;;;;;;5068575;28;20032;-74
2022/07/24 07:43:53;;;;;;;5.07;2.83;;;22.20;99.90;;;;;;5067444;28;20029;-75
2022/07/24 07:46:19;;;;;;;6.85;2.70;;;22.30;99.90;;;;;;5069233;28;20024;-75
2022/07/24 07:48:45;;;;;;;4.40;2.60;;;22.30;99.90;;;;;;5069118;28;20020;-75
2022/07/24 07:51:11;;;;;;;4.93;2.50;;;22.30;99.90;;;;;;5068071;28;20036;-76
2022/07/24 07:53:36;;;;;;;4.65;2.72;;;22.40;99.90;;;;;;5068900;28;20095;-75
2022/07/24 07:56:03;;;;;;;4.43;2.85;;;22.50;99.90;;;;;;5050858;28;20115;-74
2022/07/24 07:58:29;;;;;;;5.10;2.63;;;22.60;99.90;;;;;;5068745;28;20032;-74
2022/07/24 08:00:55;;;;;;;4.40;2.40;;;22.70;99.90;;;;;;5069000;28;20028;-74
2022/07/24 08:03:20;;;;;;;3.67;2.60;;;22.80;99.90;;;;;;5068709;28;20036;-75
2022/07/24 08:05:46;;;;;;;4.70;2.72;;;22.90;99.90;;;;;;5068964;28;20021;-74
2022/07/24 08:08:11;;;;;;;5.47;2.45;;;23.10;99.90;;;;;;5043680;28;20028;-74
2022/07/24 08:10:37;;;;;;;5.88;2.60;;;23.20;99.90;;;;;;5068438;28;20503;-74
2022/07/24 08:13:03;;;;;;;6.43;2.33;;;23.40;99.90;;;;;;5068775;28;20032;-74
2022/07/24 08:15:29;;;;;;;7.32;2.90;;;23.50;99.90;;;;;;5068703;28;20070;-75
2022/07/24 08:17:56;;;;;;;5.38;2.80;;;23.70;99.90;;;;;;5068525;28;20025;-75
2022/07/24 08:20:23;;;;;;;5.63;2.90;;;23.80;99.90;;;;;;5068500;28;20059;-74
2022/07/24 08:22:49;;;;;;;8.30;2.55;;;23.90;99.90;;;;;;5067294;28;20075;-74
2022/07/24 08:25:16;;;;;;;3.95;2.60;;;24.00;99.90;;;;;;5068678;28;20085;-75
2022/07/24 08:27:42;;;;;;;3.17;2.35;;;24.10;99.90;;;;;;5068444;28;20020;-75
2022/07/24 08:30:09;;;;;;;5.60;2.65;;;24.20;99.90;;;;;;5068125;28;20020;-75
2022/07/24 08:32:35;;;;;;;5.32;2.67;;;24.20;99.90;;;;;;5067899;28;20036;-74
2022/07/24 08:35:01;;;;;;;12.75;2.88;;;24.20;98.90;;;;;;5067462;28;20028;-74
2022/07/24 08:37:27;;;;;;;4.55;2.60;;;24.30;99.00;;;;;;5067320;28;20377;-75
2022/07/24 08:39:54;;;;;;;3.80;2.35;;;24.40;98.80;;;;;;5067425;28;20032;-76
2022/07/24 08:42:20;;;;;;;5.60;2.83;;;24.40;98.60;;;;;;5067569;28;20023;-74
2022/07/24 08:44:46;;;;;;;8.23;3.20;;;24.40;98.20;;;;;;5067114;28;20020;-74
2022/07/24 08:47:14;;;;;;;4.05;2.40;;;24.50;97.90;;;;;;5068367;28;20036;-74
2022/07/24 08:49:41;;;;;;;6.93;2.83;;;24.60;97.60;;;;;;5068045;28;20443;-74
2022/07/24 08:52:08;;;;;;;5.00;2.60;;;24.70;96.90;;;;;;5067100;28;20049;-75
2022/07/24 08:54:37;;;;;;;3.75;2.38;;;24.80;96.30;;;;;;5068306;28;21835;-74
2022/07/24 08:57:03;;;;;;;3.75;2.60;;;24.90;96.10;;;;;;5066954;28;20350;-74
2022/07/24 08:59:29;;;;;;;4.20;2.75;;;25.00;95.70;;;;;;5067118;28;20080;-74
2022/07/24 09:01:55;;;;;;;3.03;2.28;;;25.20;95.30;;;;;;5068277;28;20333;-74
2022/07/24 09:04:41;;;;;;;5.25;2.72;;;25.30;95.40;;;;;;5072269;28;20036;-74
2022/07/24 09:07:16;;;;;;;5.65;2.40;;;25.50;94.70;;;;;;5071125;28;20031;-74
2022/07/24 09:09:43;;;;;;;4.47;2.50;;;25.70;94.20;;;;;;5071568;28;20056;-75
2022/07/24 09:12:10;;;;;;;4.22;2.45;;;25.90;93.70;;;;;;5072019;28;20763;-74
2022/07/24 09:14:38;;;;;;;6.57;3.90;;;26.00;92.80;;;;;;5071243;28;20044;-75
2022/07/24 09:17:07;;;;;;;6.07;3.50;;;26.00;92.20;;;;;;5075810;28;20495;-75
2022/07/24 09:19:45;;;;;;;3.42;2.40;;;26.00;92.00;;;;;;5070183;28;20040;-75
2022/07/24 09:22:26;;;;;;;4.82;2.58;;;26.10;91.80;;;;;;5071625;28;20116;-75
2022/07/24 09:25:18;;;;;;;3.72;2.40;;;26.20;91.20;;;;;;5070452;28;20056;-75
2022/07/24 09:27:54;;;;;;;3.95;2.40;;;26.40;91.40;;;;;;5068877;28;20392;-75
2022/07/24 09:30:37;;;;;;;5.63;2.40;;;26.60;90.80;;;;;;5072360;28;20021;-75
2022/07/24 09:33:05;;;;;;;4.55;2.40;;;26.80;90.30;;;;;;5070271;28;20528;-74
2022/07/24 09:35:39;;;;;;;3.53;2.40;;;26.80;90.10;;;;;;5062939;28;20512;-74
2022/07/24 09:38:07;;;;;;;5.07;2.80;;;26.70;88.30;;;;;;5067384;28;20017;-74
2022/07/24 09:40:36;;;;;;;4.35;2.70;;;26.70;88.40;;;;;;5072796;28;20463;-76
2022/07/24 09:43:21;;;;;;;14.77;3.35;;;26.60;87.90;;;;;;5072554;28;20028;-76
2022/07/24 09:45:53;;;;;;;;;;;26.70;86.80;;;;;;5072865;28;20376;-74
2022/07/24 09:48:22;;;;;;;8.73;2.70;;;26.70;86.90;;;;;;5071310;28;19916;-74
2022/07/24 09:50:59;;;;;;;6.18;2.60;;;26.70;86.50;;;;;;5073458;28;20407;-75
2022/07/24 09:53:28;;;;;;;8.82;2.50;;;26.80;85.00;;;;;;5072833;28;20032;-74
2022/07/24 09:56:14;;;;;;;3.70;2.40;;;26.80;85.50;;;;;;5070840;28;20024;-77
2022/07/24 09:58:54;;;;;;;10.30;8.05;;;26.90;84.10;;;;;;5070836;28;20481;-76
2022/07/24 10:01:23;;;;;;;9.75;6.63;;;27.00;84.30;;;;;;5067802;28;20111;-76
2022/07/24 10:03:50;;;;;;;3.63;2.58;;;27.10;83.10;;;;;;5071314;28;20078;-78
2022/07/24 10:06:22;;;;;;;6.80;4.70;;;27.10;83.20;;;;;;5069841;28;20082;-76
2022/07/24 10:08:50;;;;;;;18.13;13.05;;;27.30;82.70;;;;;;5068251;28;20021;-77
2022/07/24 10:11:16;;;;;;;12.75;8.07;;;27.50;81.50;;;;;;5068771;28;20020;-78
2022/07/24 10:13:42;;;;;;;5.60;2.70;;;27.50;79.90;;;;;;5071230;28;20024;-81
2022/07/24 10:16:14;;;;;;;3.78;2.47;;;27.60;79.40;;;;;;5073612;28;20017;-77
2022/07/24 10:18:50;;;;;;;7.10;2.42;;;27.60;78.20;;;;;;5064987;28;20021;-77
2022/07/24 10:21:23;;;;;;;4.90;2.35;;;27.60;77.10;;;;;;5069583;28;20132;-78
2022/07/24 10:24:07;;;;;;;5.57;2.70;;;27.60;77.40;;;;;;5066891;28;20109;-77
2022/07/24 10:26:32;;;;;;;4.07;2.40;;;27.70;75.80;;;;;;5072248;28;20025;-77
2022/07/24 10:29:10;;;;;;;6.07;2.70;;;27.70;75.50;;;;;;5067566;28;20028;-74
2022/07/24 10:31:43;;;;;;;12.07;6.90;;;27.80;73.80;;;;;;5069787;28;20017;-73
2022/07/24 10:34:23;;;;;;;23.90;21.33;;;27.80;74.20;;;;;;5070782;28;20802;-73
2022/07/24 10:37:14;;;;;;;19.92;13.98;;;28.00;74.60;;;;;;5066143;28;20032;-73
2022/07/24 10:40:01;;;;;;;6.10;2.72;;;28.10;73.20;;;;;;5001983;28;20040;-72
2022/07/24 10:42:27;;;;;;;6.45;2.35;;;28.10;73.60;;;;;;5067845;28;20028;-75
2022/07/24 10:45:19;;;;;;;4.28;2.42;;;28.30;73.90;;;;;;5070244;28;20025;-76
2022/07/24 10:47:46;;;;;;;7.35;3.25;;;28.40;72.70;;;;;;5069964;28;20021;-74
2022/07/24 10:50:14;;;;;;;5.90;3.10;;;28.50;72.40;;;;;;5068655;28;20090;-74
2022/07/24 10:52:41;;;;;;;8.15;2.90;;;28.50;71.80;;;;;;5067686;28;20074;-71
2022/07/24 10:55:30;;;;;;;4.95;2.95;;;28.60;71.30;;;;;;5069339;28;20032;-74
2022/07/24 10:57:59;;;;;;;7.13;3.00;;;28.80;71.20;;;;;;5065786;28;20104;-73
2022/07/24 11:00:40;;;;;;;6.32;3.00;;;28.80;70.90;;;;;;5069922;28;20068;-74
2022/07/24 11:03:08;;;;;;;5.53;2.70;;;29.00;70.70;;;;;;5073594;28;20024;-73
2022/07/24 11:05:36;;;;;;;15.45;11.52;;;29.10;70.20;;;;;;5053222;28;20074;-75
2022/07/24 11:08:29;;;;;;;77.30;54.05;;;29.20;69.40;;;;;;5069466;28;20032;-74
2022/07/24 11:10:59;;;;;;;6.63;5.05;;;29.20;68.60;;;;;;5049098;28;20021;-75
2022/07/24 11:13:34;;;;;;;7.63;4.30;;;29.20;69.00;;;;;;5068422;28;20035;-76
2022/07/24 11:16:15;;;;;;;;;;;29.30;68.80;;;;;;5049360;28;20025;-75
2022/07/24 11:18:49;;;;;;;5.70;2.92;;;29.20;67.90;;;;;;5065228;28;19908;-75
2022/07/24 11:21:31;;;;;;;6.65;2.78;;;29.20;68.30;;;;;;5067310;28;20052;-76
2022/07/24 11:24:21;;;;;;;15.32;11.82;;;29.30;67.40;;;;;;5070737;28;20070;-74
2022/07/24 11:26:51;;;;;;;47.78;39.40;;;29.50;67.10;;;;;;5051049;28;20033;-76
2022/07/24 11:29:27;;;;;;;30.23;22.02;;;29.50;67.40;;;;;;5069902;28;20028;-75
2022/07/24 11:31:59;;;;;;;20.13;13.50;;;29.60;66.50;;;;;;5065846;28;20020;-76
2022/07/24 11:34:26;;;;;;;3.70;3.13;;;29.60;66.20;;;;;;5066448;28;20369;-73
2022/07/24 11:36:54;;;;;;;6.40;2.80;;;29.60;65.80;;;;;;5069096;28;20419;-74
2022/07/24 11:39:26;;;;;;;4.55;3.10;;;29.70;66.10;;;;;;5049762;28;20024;-74
2022/07/24 11:42:13;;;;;;;4.03;2.90;;;29.70;65.50;;;;;;5052737;28;20040;-75
2022/07/24 11:44:41;;;;;;;4.88;3.10;;;29.80;64.90;;;;;;5072813;28;20240;-74
2022/07/24 11:47:14;;;;;;;4.45;2.80;;;29.80;65.60;;;;;;5072121;28;20013;-73
2022/07/24 11:49:47;;;;;;;7.65;3.53;;;29.90;65.30;;;;;;5070892;28;20399;-73
2022/07/24 11:52:27;;;;;;;12.38;9.02;;;29.90;65.00;;;;;;5068350;28;20111;-73
2022/07/24 11:54:55;;;;;;;42.47;38.33;;;30.00;63.80;;;;;;5051610;28;20021;-73
2022/07/24 11:57:32;;;;;;;8.60;5.35;;;30.00;64.10;;;;;;5068802;28;20056;-75
2022/07/24 11:59:58;;;;;;;40.97;36.00;;;30.20;64.30;;;;;;5068870;28;20029;-75
2022/07/24 12:02:24;;;;;;;15.32;12.93;;;30.30;63.80;;;;;;5071668;28;20034;-75
2022/07/24 12:04:50;;;;;;;19.02;14.48;;;30.40;63.30;;;;;;5068843;28;20028;-75
2022/07/24 12:07:22;;;;;;;4.45;2.92;;;30.50;62.20;;;;;;5073531;28;20082;-73
2022/07/24 12:10:00;;;;;;;5.28;2.78;;;30.50;61.30;;;;;;5073505;28;20043;-74
2022/07/24 12:12:31;;;;;;;3.92;2.70;;;30.50;60.90;;;;;;5073777;28;20137;-73
2022/07/24 12:15:08;;;;;;;4.35;2.40;;;30.50;61.40;;;;;;5048028;28;20063;-73
2022/07/24 12:17:51;;;;;;;4.55;2.72;;;30.60;60.90;;;;;;5074946;28;20469;-73
2022/07/24 12:20:21;;;;;;;4.82;2.45;;;30.70;59.80;;;;;;5070089;28;20049;-73
2022/07/24 12:22:47;;;;;;;3.40;2.72;;;30.80;59.80;;;;;;5070256;28;20658;-73
2022/07/24 12:25:14;;;;;;;5.82;2.65;;;30.80;59.50;;;;;;5070436;28;20062;-74
2022/07/24 12:27:44;;;;;;;4.70;2.65;;;30.90;59.00;;;;;;5070207;28;20383;-75
2022/07/24 12:30:17;;;;;;;3.65;2.45;;;30.90;58.60;;;;;;5070674;28;20020;-74
2022/07/24 12:32:53;;;;;;;4.80;2.53;;;30.90;58.60;;;;;;5070576;28;20024;-74
2022/07/24 12:35:18;;;;;;;5.93;2.88;;;30.90;58.40;;;;;;5057504;28;20484;-74
2022/07/24 12:37:44;;;;;;;5.43;2.90;;;30.80;58.30;;;;;;5073415;28;20046;-74
2022/07/24 12:40:25;;;;;;;7.35;2.55;;;30.80;58.20;;;;;;5074267;28;20421;-75
2022/07/24 12:42:59;;;;;;;8.20;2.58;;;30.90;57.90;;;;;;5074516;28;20499;-75